createdAt,value
2018-05-19T00:00:57.903Z,0
2018-05-19T00:01:57.639Z,0
2018-05-19T00:02:57.377Z,0
2018-05-19T00:03:57.377Z,0
2018-05-19T00:04:57.633Z,0
2018-05-19T00:05:57.637Z,0
2018-05-19T00:06:57.370Z,0
2018-05-19T00:07:57.896Z,0
2018-05-19T00:08:57.892Z,0
2018-05-19T00:09:57.963Z,0
2018-05-19T00:10:57.351Z,0
2018-05-19T00:11:57.624Z,0
2018-05-19T00:12:57.352Z,0
2018-05-19T00:13:57.357Z,0
2018-05-19T00:14:58.700Z,0
2018-05-19T00:15:57.621Z,0
2018-05-19T00:16:57.887Z,0
2018-05-19T00:17:57.602Z,0
2018-05-19T00:18:57.902Z,0
2018-05-19T00:19:57.599Z,0
2018-05-19T00:20:57.601Z,0
2018-05-19T00:21:57.340Z,0
2018-05-19T00:22:57.344Z,0
2018-05-19T00:23:57.601Z,0
2018-05-19T00:24:57.649Z,0
2018-05-19T00:25:57.848Z,0
2018-05-19T00:26:57.588Z,0
2018-05-19T00:27:57.069Z,0
2018-05-19T00:28:57.865Z,0
2018-05-19T00:29:57.337Z,0
2018-05-19T00:30:57.333Z,0
2018-05-19T00:31:57.573Z,0
2018-05-19T00:32:57.828Z,0
2018-05-19T00:33:57.047Z,0
2018-05-19T00:34:57.319Z,0
2018-05-19T00:35:57.855Z,0
2018-05-19T00:36:57.572Z,0
2018-05-19T00:37:57.552Z,0
2018-05-19T00:38:57.290Z,0
2018-05-19T00:39:57.616Z,0
2018-05-19T00:40:57.666Z,0
2018-05-19T00:41:57.549Z,0
2018-05-19T00:42:57.294Z,0
2018-05-19T00:43:57.553Z,0
2018-05-19T00:44:57.280Z,0
2018-05-19T00:45:57.557Z,0
2018-05-19T00:46:57.878Z,0
2018-05-19T00:47:57.580Z,0
2018-05-19T00:48:57.270Z,0
2018-05-19T00:49:57.538Z,0
2018-05-19T00:50:57.804Z,0
2018-05-19T00:51:57.005Z,0
2018-05-19T00:52:57.284Z,0
2018-05-19T00:53:57.557Z,0
2018-05-19T00:54:58.630Z,0
2018-05-19T00:55:57.259Z,0
2018-05-19T00:56:57.526Z,0
2018-05-19T00:57:57.528Z,0
2018-05-19T00:58:57.532Z,0
2018-05-19T00:59:57.242Z,0
2018-05-19T01:00:57.538Z,0
2018-05-19T01:01:57.501Z,0
2018-05-19T01:02:57.509Z,0
2018-05-19T01:03:57.503Z,0
2018-05-19T01:04:57.502Z,0
2018-05-19T01:05:57.264Z,0
2018-05-19T01:06:57.502Z,0
2018-05-19T01:07:57.491Z,0
2018-05-19T01:08:57.498Z,0
2018-05-19T01:09:57.486Z,0
2018-05-19T01:10:57.744Z,0
2018-05-19T01:11:57.492Z,0
2018-05-19T01:12:57.485Z,0
2018-05-19T01:13:57.477Z,0
2018-05-19T01:14:57.492Z,0
2018-05-19T01:15:57.477Z,0
2018-05-19T01:16:57.218Z,0
2018-05-19T01:17:57.476Z,0
2018-05-19T01:18:57.745Z,0
2018-05-19T01:19:57.479Z,0
2018-05-19T01:20:57.198Z,0
2018-05-19T01:21:57.463Z,0
2018-05-19T01:22:56.936Z,0
2018-05-19T01:23:57.610Z,0
2018-05-19T01:24:57.191Z,0
2018-05-19T01:25:57.489Z,0
2018-05-19T01:26:57.453Z,0
2018-05-19T01:27:57.438Z,0
2018-05-19T01:28:57.456Z,0
2018-05-19T01:29:57.700Z,0
2018-05-19T01:30:57.186Z,0
2018-05-19T01:31:57.451Z,0
2018-05-19T01:32:57.429Z,0
2018-05-19T01:33:57.673Z,0
2018-05-19T01:34:57.410Z,0
2018-05-19T01:35:57.152Z,0
2018-05-19T01:36:57.546Z,0
2018-05-19T01:37:57.411Z,0
2018-05-19T01:38:57.420Z,0
2018-05-19T01:39:57.877Z,0
2018-05-19T01:40:57.734Z,0
2018-05-19T01:41:57.409Z,0
2018-05-19T01:42:57.415Z,0
2018-05-19T01:43:57.135Z,0
2018-05-19T01:44:57.139Z,0
2018-05-19T01:45:57.403Z,0
2018-05-19T01:46:57.395Z,0
2018-05-19T01:47:57.392Z,0
2018-05-19T01:48:57.400Z,0
2018-05-19T01:49:57.388Z,0
2018-05-19T01:50:57.409Z,0
2018-05-19T01:51:57.386Z,0
2018-05-19T01:52:57.377Z,0
2018-05-19T01:53:57.383Z,0
2018-05-19T01:54:57.368Z,0
2018-05-19T01:55:57.112Z,0
2018-05-19T01:56:57.102Z,0
2018-05-19T01:57:57.363Z,0
2018-05-19T01:58:57.645Z,0
2018-05-19T01:59:57.350Z,0
2018-05-19T02:00:57.360Z,0
2018-05-19T02:01:57.090Z,0
2018-05-19T02:02:57.091Z,0
2018-05-19T02:03:57.101Z,0
2018-05-19T02:04:57.344Z,0
2018-05-19T02:05:57.077Z,0
2018-05-19T02:06:57.075Z,0
2018-05-19T02:07:57.346Z,0
2018-05-19T02:08:57.762Z,0
2018-05-19T02:09:57.318Z,0
2018-05-19T02:10:57.345Z,0
2018-05-19T02:11:56.792Z,0
2018-05-19T02:12:57.335Z,0
2018-05-19T02:13:57.048Z,0
2018-05-19T02:14:57.054Z,0
2018-05-19T02:15:56.793Z,0
2018-05-19T02:16:57.588Z,0
2018-05-19T02:17:57.040Z,0
2018-05-19T02:18:57.039Z,0
2018-05-19T02:19:57.047Z,0
2018-05-19T02:20:57.049Z,0
2018-05-19T02:21:57.564Z,0
2018-05-19T02:22:57.556Z,0
2018-05-19T02:23:57.310Z,0
2018-05-19T02:24:57.040Z,0
2018-05-19T02:25:57.559Z,0
2018-05-19T02:26:57.024Z,0
2018-05-19T02:27:57.016Z,0
2018-05-19T02:28:57.315Z,0
2018-05-19T02:29:57.018Z,0
2018-05-19T02:30:57.285Z,0
2018-05-19T02:31:57.026Z,0
2018-05-19T02:32:57.258Z,0
2018-05-19T02:33:57.275Z,0
2018-05-19T02:34:57.278Z,0
2018-05-19T02:35:57.515Z,0
2018-05-19T02:36:57.527Z,0
2018-05-19T02:37:57.246Z,0
2018-05-19T02:38:57.251Z,0
2018-05-19T02:39:57.507Z,0
2018-05-19T02:40:57.541Z,0
2018-05-19T02:41:57.247Z,0
2018-05-19T02:42:57.242Z,0
2018-05-19T02:43:57.492Z,0
2018-05-19T02:44:57.241Z,0
2018-05-19T02:45:57.228Z,0
2018-05-19T02:46:57.241Z,0
2018-05-19T02:47:56.986Z,0
2018-05-19T02:48:56.964Z,0
2018-05-19T02:49:57.504Z,0
2018-05-19T02:50:57.227Z,0
2018-05-19T02:51:56.744Z,0
2018-05-19T02:52:57.220Z,0
2018-05-19T02:53:57.205Z,0
2018-05-19T02:54:56.956Z,0
2018-05-19T02:55:57.231Z,0
2018-05-19T02:56:57.479Z,0
2018-05-19T02:57:56.937Z,0
2018-05-19T02:58:56.679Z,0
2018-05-19T02:59:56.927Z,0
2018-05-19T03:00:57.212Z,0
2018-05-19T03:01:57.457Z,4
2018-05-19T03:02:57.533Z,4
2018-05-19T03:03:57.212Z,4
2018-05-19T03:04:57.456Z,0
2018-05-19T03:05:57.186Z,4
2018-05-19T03:06:57.434Z,4
2018-05-19T03:07:57.198Z,0
2018-05-19T03:08:57.218Z,4
2018-05-19T03:09:57.454Z,8
2018-05-19T03:10:57.516Z,4
2018-05-19T03:11:57.155Z,8
2018-05-19T03:12:57.179Z,8
2018-05-19T03:13:57.419Z,8
2018-05-19T03:14:56.893Z,8
2018-05-19T03:15:56.905Z,8
2018-05-19T03:16:57.447Z,12
2018-05-19T03:17:57.159Z,12
2018-05-19T03:18:57.418Z,16
2018-05-19T03:19:57.142Z,16
2018-05-19T03:20:57.426Z,20
2018-05-19T03:21:56.880Z,24
2018-05-19T03:22:56.875Z,32
2018-05-19T03:23:56.874Z,32
2018-05-19T03:24:56.880Z,36
2018-05-19T03:25:56.605Z,40
2018-05-19T03:26:57.120Z,44
2018-05-19T03:27:57.124Z,52
2018-05-19T03:28:57.374Z,60
2018-05-19T03:29:57.116Z,68
2018-05-19T03:30:57.430Z,72
2018-05-19T03:31:57.114Z,80
2018-05-19T03:32:57.193Z,84
2018-05-19T03:33:57.121Z,92
2018-05-19T03:34:56.925Z,100
2018-05-19T03:35:57.535Z,108
2018-05-19T03:36:57.091Z,112
2018-05-19T03:37:57.089Z,124
2018-05-19T03:38:57.339Z,132
2018-05-19T03:39:57.375Z,136
2018-05-19T03:40:57.140Z,144
2018-05-19T03:41:57.422Z,152
2018-05-19T03:42:57.058Z,160
2018-05-19T03:43:57.064Z,164
2018-05-19T03:44:56.825Z,172
2018-05-19T03:45:57.057Z,180
2018-05-19T03:46:57.313Z,192
2018-05-19T03:47:56.781Z,200
2018-05-19T03:48:56.800Z,212
2018-05-19T03:49:57.045Z,224
2018-05-19T03:50:57.323Z,236
2018-05-19T03:51:56.775Z,252
2018-05-19T03:52:57.042Z,268
2018-05-19T03:53:57.325Z,288
2018-05-19T03:54:57.036Z,304
2018-05-19T03:55:58.925Z,324
2018-05-19T03:56:57.301Z,344
2018-05-19T03:57:56.773Z,364
2018-05-19T03:58:56.496Z,388
2018-05-19T03:59:57.330Z,412
2018-05-19T04:00:57.011Z,432
2018-05-19T04:01:57.274Z,460
2018-05-19T04:02:57.014Z,488
2018-05-19T04:03:56.745Z,516
2018-05-19T04:04:57.013Z,540
2018-05-19T04:05:56.747Z,564
2018-05-19T04:06:57.272Z,588
2018-05-19T04:07:57.256Z,604
2018-05-19T04:08:56.981Z,616
2018-05-19T04:09:57.252Z,620
2018-05-19T04:10:57.287Z,624
2018-05-19T04:11:56.717Z,624
2018-05-19T04:12:56.712Z,632
2018-05-19T04:13:57.246Z,640
2018-05-19T04:14:56.975Z,652
2018-05-19T04:15:57.252Z,672
2018-05-19T04:16:56.722Z,692
2018-05-19T04:17:57.245Z,708
2018-05-19T04:18:56.695Z,728
2018-05-19T04:19:56.946Z,744
2018-05-19T04:20:56.994Z,760
2018-05-19T04:21:56.745Z,768
2018-05-19T04:22:57.214Z,780
2018-05-19T04:23:56.953Z,784
2018-05-19T04:24:56.950Z,780
2018-05-19T04:25:56.942Z,776
2018-05-19T04:26:56.936Z,776
2018-05-19T04:27:57.212Z,780
2018-05-19T04:28:56.682Z,788
2018-05-19T04:29:56.919Z,804
2018-05-19T04:30:57.189Z,820
2018-05-19T04:31:57.174Z,844
2018-05-19T04:32:56.657Z,868
2018-05-19T04:33:56.655Z,904
2018-05-19T04:34:56.900Z,944
2018-05-19T04:35:57.163Z,996
2018-05-19T04:36:56.918Z,1056
2018-05-19T04:37:57.179Z,1120
2018-05-19T04:38:56.901Z,1172
2018-05-19T04:39:57.293Z,1236
2018-05-19T04:40:56.945Z,1300
2018-05-19T04:41:56.893Z,1364
2018-05-19T04:42:56.888Z,1420
2018-05-19T04:43:56.905Z,1480
2018-05-19T04:44:56.377Z,1536
2018-05-19T04:45:56.630Z,1588
2018-05-19T04:46:56.894Z,1636
2018-05-19T04:47:57.136Z,1696
2018-05-19T04:48:56.885Z,1768
2018-05-19T04:49:57.126Z,1852
2018-05-19T04:50:56.896Z,1940
2018-05-19T04:51:57.208Z,2008
2018-05-19T04:52:56.865Z,2068
2018-05-19T04:53:56.598Z,2120
2018-05-19T04:54:56.916Z,2176
2018-05-19T04:55:58.542Z,2232
2018-05-19T04:56:57.213Z,2284
2018-05-19T04:57:57.112Z,2328
2018-05-19T04:58:56.600Z,2316
2018-05-19T04:59:57.102Z,2364
2018-05-19T05:00:56.853Z,2412
2018-05-19T05:01:56.859Z,2480
2018-05-19T05:02:56.851Z,2564
2018-05-19T05:03:57.117Z,2664
2018-05-19T05:04:56.842Z,2788
2018-05-19T05:05:56.866Z,2948
2018-05-19T05:06:56.591Z,3104
2018-05-19T05:07:57.174Z,3232
2018-05-19T05:08:56.848Z,3368
2018-05-19T05:09:57.099Z,3528
2018-05-19T05:10:56.874Z,3688
2018-05-19T05:11:56.821Z,3960
2018-05-19T05:12:57.091Z,3960
2018-05-19T05:13:57.067Z,4116
2018-05-19T05:14:57.094Z,4308
2018-05-19T05:15:56.815Z,4464
2018-05-19T05:16:56.831Z,4652
2018-05-19T05:17:57.105Z,4884
2018-05-19T05:18:56.835Z,5068
2018-05-19T05:19:56.570Z,5252
2018-05-19T05:20:56.587Z,5412
2018-05-19T05:21:56.539Z,5544
2018-05-19T05:22:57.083Z,5680
2018-05-19T05:23:56.587Z,5808
2018-05-19T05:24:56.848Z,5932
2018-05-19T05:25:57.083Z,6072
2018-05-19T05:26:57.153Z,6212
2018-05-19T05:27:56.533Z,6364
2018-05-19T05:28:57.096Z,6528
2018-05-19T05:29:57.111Z,6640
2018-05-19T05:30:56.522Z,6668
2018-05-19T05:31:56.531Z,6732
2018-05-19T05:32:57.064Z,6844
2018-05-19T05:33:56.808Z,6968
2018-05-19T05:34:56.809Z,6916
2018-05-19T05:35:57.334Z,6820
2018-05-19T05:36:56.831Z,6728
2018-05-19T05:37:56.524Z,6636
2018-05-19T05:38:56.801Z,6552
2018-05-19T05:39:56.522Z,6556
2018-05-19T05:40:57.031Z,6592
2018-05-19T05:41:56.781Z,6664
2018-05-19T05:42:56.778Z,6732
2018-05-19T05:43:57.049Z,6812
2018-05-19T05:44:57.028Z,6928
2018-05-19T05:45:56.793Z,7036
2018-05-19T05:46:56.778Z,7116
2018-05-19T05:47:56.771Z,7196
2018-05-19T05:48:56.797Z,7260
2018-05-19T05:49:56.795Z,7404
2018-05-19T05:50:56.795Z,7472
2018-05-19T05:51:57.042Z,7616
2018-05-19T05:52:56.797Z,7676
2018-05-19T05:53:56.773Z,7756
2018-05-19T05:54:56.785Z,8228
2018-05-19T05:55:56.770Z,8268
2018-05-19T05:56:56.941Z,7512
2018-05-19T05:57:56.525Z,7444
2018-05-19T05:58:56.776Z,7452
2018-05-19T05:59:57.210Z,7520
2018-05-19T06:00:56.524Z,7648
2018-05-19T06:01:57.046Z,7800
2018-05-19T06:02:56.776Z,7868
2018-05-19T06:03:56.765Z,7936
2018-05-19T06:04:56.779Z,7760
2018-05-19T06:05:57.038Z,7368
2018-05-19T06:06:57.047Z,7300
2018-05-19T06:07:56.525Z,7400
2018-05-19T06:08:56.547Z,7592
2018-05-19T06:09:56.782Z,7820
2018-05-19T06:10:56.533Z,8424
2018-05-19T06:11:56.573Z,8404
2018-05-19T06:12:56.787Z,8620
2018-05-19T06:13:56.253Z,10560
2018-05-19T06:23:57.582Z,9984
2018-05-19T06:24:57.573Z,10272
2018-05-19T06:25:57.308Z,10724
2018-05-19T06:26:57.301Z,9288
2018-05-19T06:27:57.027Z,8948
2018-05-19T06:28:57.559Z,8644
2018-05-19T06:29:57.046Z,8568
2018-05-19T06:30:57.566Z,8588
2018-05-19T06:31:56.773Z,8648
2018-05-19T06:32:57.561Z,8928
2018-05-19T06:33:57.304Z,9948
2018-05-19T06:34:57.809Z,10548
2018-05-19T06:35:57.313Z,9572
2018-05-19T06:36:57.068Z,9084
2018-05-19T06:37:57.298Z,9048
2018-05-19T06:38:57.056Z,9188
2018-05-19T06:39:57.067Z,10264
2018-05-19T06:40:57.556Z,9612
2018-05-19T06:41:57.364Z,9792
2018-05-19T06:42:56.795Z,9384
2018-05-19T06:43:57.569Z,9408
2018-05-19T06:44:57.305Z,9504
2018-05-19T06:45:57.569Z,9596
2018-05-19T06:46:57.322Z,9720
2018-05-19T06:47:57.416Z,9660
2018-05-19T06:48:57.074Z,9628
2018-05-19T06:49:56.841Z,9584
2018-05-19T06:50:57.320Z,9580
2018-05-19T06:51:57.319Z,9560
2018-05-19T06:52:57.054Z,9960
2018-05-19T06:53:57.322Z,9956
2018-05-19T06:54:57.082Z,9920
2018-05-19T06:55:57.335Z,10216
2018-05-19T06:56:57.312Z,10324
2018-05-19T06:57:57.070Z,10600
2018-05-19T06:59:00.361Z,12592
2018-05-19T06:59:57.591Z,11568
2018-05-19T07:00:57.074Z,11944
2018-05-19T07:01:57.339Z,10364
2018-05-19T07:02:56.809Z,11640
2018-05-19T07:03:57.325Z,10948
2018-05-19T07:04:57.349Z,10248
2018-05-19T07:05:57.345Z,10336
2018-05-19T07:06:57.091Z,12980
2018-05-19T07:07:57.610Z,12952
2018-05-19T07:08:57.621Z,13444
2018-05-19T07:09:57.354Z,13468
2018-05-19T07:10:57.365Z,13320
2018-05-19T07:11:57.595Z,13180
2018-05-19T07:12:57.357Z,11744
2018-05-19T07:13:57.209Z,12088
2018-05-19T07:14:57.659Z,13144
2018-05-19T07:15:57.355Z,14580
2018-05-19T07:16:57.106Z,15108
2018-05-19T07:17:57.098Z,13108
2018-05-19T07:18:57.352Z,16192
2018-05-19T07:19:57.102Z,16352
2018-05-19T07:20:57.367Z,16672
2018-05-19T07:21:57.604Z,16384
2018-05-19T07:22:57.370Z,15552
2018-05-19T07:23:57.366Z,15872
2018-05-19T07:24:57.129Z,14928
2018-05-19T07:25:57.430Z,14424
2018-05-19T07:26:57.673Z,13220
2018-05-19T07:27:57.388Z,12740
2018-05-19T07:28:59.453Z,10840
2018-05-19T07:29:57.390Z,10332
2018-05-19T07:30:57.129Z,10172
2018-05-19T07:31:57.140Z,9892
2018-05-19T07:32:57.147Z,9884
2018-05-19T07:33:57.414Z,9572
2018-05-19T07:34:57.433Z,9296
2018-05-19T07:35:57.541Z,8768
2018-05-19T07:36:57.665Z,8452
2018-05-19T07:37:56.908Z,8216
2018-05-19T07:38:57.437Z,8024
2018-05-19T07:39:56.913Z,7880
2018-05-19T07:40:57.440Z,7804
2018-05-19T07:41:57.429Z,7760
2018-05-19T07:42:57.723Z,7724
2018-05-19T07:43:57.706Z,7712
2018-05-19T07:44:57.706Z,7732
2018-05-19T07:45:57.706Z,7756
2018-05-19T07:46:57.715Z,7796
2018-05-19T07:47:57.449Z,8012
2018-05-19T07:48:57.469Z,8144
2018-05-19T07:49:57.466Z,8116
2018-05-19T07:50:58.144Z,8160
2018-05-19T07:51:57.184Z,8328
2018-05-19T07:52:57.465Z,8564
2018-05-19T07:53:57.207Z,8984
2018-05-19T07:54:57.714Z,9224
2018-05-19T07:55:57.473Z,9424
2018-05-19T07:56:57.193Z,9436
2018-05-19T07:57:57.219Z,9620
2018-05-19T07:58:57.215Z,10300
2018-05-19T07:59:57.466Z,10892
2018-05-19T08:00:56.959Z,12892
2018-05-19T08:01:57.476Z,13188
2018-05-19T08:02:57.523Z,13316
2018-05-19T08:03:57.471Z,13804
2018-05-19T08:04:57.499Z,13664
2018-05-19T08:05:57.255Z,12856
2018-05-19T08:06:57.513Z,13096
2018-05-19T08:07:56.970Z,13308
2018-05-19T08:08:57.229Z,13600
2018-05-19T08:09:57.238Z,14324
2018-05-19T08:10:57.802Z,14672
2018-05-19T08:11:57.516Z,14592
2018-05-19T08:12:57.525Z,14484
2018-05-19T08:13:57.298Z,14560
2018-05-19T08:14:57.529Z,14072
2018-05-19T08:15:57.794Z,13412
2018-05-19T08:16:57.567Z,12952
2018-05-19T08:17:57.539Z,11932
2018-05-19T08:18:57.264Z,11636
2018-05-19T08:19:57.819Z,11364
2018-05-19T08:20:57.880Z,11668
2018-05-19T08:21:57.551Z,11360
2018-05-19T08:22:57.285Z,11976
2018-05-19T08:23:57.393Z,12656
2018-05-19T08:24:57.616Z,12276
2018-05-19T08:25:57.345Z,11932
2018-05-19T08:26:57.584Z,12104
2018-05-19T08:27:57.861Z,11308
2018-05-19T08:28:57.586Z,10800
2018-05-19T08:29:57.317Z,10104
2018-05-19T08:30:57.855Z,9936
2018-05-19T08:31:57.335Z,10244
2018-05-19T08:32:57.594Z,11828
2018-05-19T08:33:57.344Z,12588
2018-05-19T08:34:57.869Z,12392
2018-05-19T08:35:57.378Z,12592
2018-05-19T08:36:57.381Z,12496
2018-05-19T08:37:57.622Z,12716
2018-05-19T08:38:57.338Z,12824
2018-05-19T08:39:57.859Z,12060
2018-05-19T08:40:57.885Z,11820
2018-05-19T08:41:57.633Z,12236
2018-05-19T08:42:57.654Z,11336
2018-05-19T08:43:57.638Z,11136
2018-05-19T08:44:57.444Z,11076
2018-05-19T08:45:57.918Z,11628
2018-05-19T08:46:57.409Z,11808
2018-05-19T08:47:57.656Z,12280
2018-05-19T08:48:57.947Z,12252
2018-05-19T08:49:57.678Z,11724
2018-05-19T08:50:57.412Z,11384
2018-05-19T08:51:57.718Z,11656
2018-05-19T08:52:57.440Z,12360
2018-05-19T08:53:57.952Z,12492
2018-05-19T08:54:57.700Z,12704
2018-05-19T08:55:57.972Z,12400
2018-05-19T08:56:57.434Z,10956
2018-05-19T08:57:57.450Z,11096
2018-05-19T08:58:57.719Z,11752
2018-05-19T08:59:57.200Z,11548
2018-05-19T09:00:57.981Z,11236
2018-05-19T09:01:57.466Z,11804
2018-05-19T09:02:57.224Z,11616
2018-05-19T09:03:57.212Z,11600
2018-05-19T09:04:57.474Z,10712
2018-05-19T09:05:57.730Z,11948
2018-05-19T09:06:57.766Z,12476
2018-05-19T09:07:57.727Z,12428
2018-05-19T09:08:57.778Z,11180
2018-05-19T09:09:57.752Z,10244
2018-05-19T09:10:58.041Z,10044
2018-05-19T09:11:57.750Z,9856
2018-05-19T09:12:58.102Z,9716
2018-05-19T09:13:57.769Z,9736
2018-05-19T09:14:58.104Z,9848
2018-05-19T09:15:57.771Z,10064
2018-05-19T09:16:58.030Z,10376
2018-05-19T09:17:58.050Z,10576
2018-05-19T09:18:57.848Z,11128
2018-05-19T09:19:57.780Z,11084
2018-05-19T09:20:57.797Z,10960
2018-05-19T09:21:57.538Z,11432
2018-05-19T09:22:57.268Z,11080
2018-05-19T09:23:57.542Z,11188
2018-05-19T09:24:58.055Z,11468
2018-05-19T09:25:57.799Z,11556
2018-05-19T09:26:57.798Z,11664
2018-05-19T09:27:58.074Z,11816
2018-05-19T09:28:57.821Z,11884
2018-05-19T09:29:57.781Z,11916
2018-05-19T09:30:57.812Z,12180
2018-05-19T09:31:57.302Z,12252
2018-05-19T09:32:57.559Z,12480
2018-05-19T09:33:57.825Z,12944
2018-05-19T09:34:57.815Z,13940
2018-05-19T09:35:58.095Z,13736
2018-05-19T09:36:57.838Z,14040
2018-05-19T09:37:57.570Z,13932
2018-05-19T09:38:57.835Z,14284
2018-05-19T09:39:57.582Z,14820
2018-05-19T09:40:57.880Z,15284
2018-05-19T09:41:57.856Z,16160
2018-05-19T09:42:58.120Z,16096
2018-05-19T09:43:57.863Z,15408
2018-05-19T09:44:57.910Z,14504
2018-05-19T09:45:57.865Z,14720
2018-05-19T09:46:57.862Z,13792
2018-05-19T09:47:57.867Z,13364
2018-05-19T09:48:57.614Z,13020
2018-05-19T09:49:57.862Z,12688
2018-05-19T09:50:57.621Z,12480
2018-05-19T09:51:58.131Z,12332
2018-05-19T09:52:58.169Z,12276
2018-05-19T09:53:57.878Z,12884
2018-05-19T09:54:57.633Z,12092
2018-05-19T09:55:58.150Z,11992
2018-05-19T09:56:58.164Z,11728
2018-05-19T09:57:57.910Z,11384
2018-05-19T09:58:57.642Z,11088
2018-05-19T09:59:57.693Z,11056
2018-05-19T10:00:57.933Z,10808
2018-05-19T10:01:58.174Z,10724
2018-05-19T10:02:57.919Z,10736
2018-05-19T10:03:57.914Z,10804
2018-05-19T10:04:58.623Z,10936
2018-05-19T10:05:57.940Z,11076
2018-05-19T10:06:57.928Z,11180
2018-05-19T10:07:57.934Z,11248
2018-05-19T10:08:57.678Z,11272
2018-05-19T10:09:57.936Z,11276
2018-05-19T10:10:57.937Z,11288
2018-05-19T10:11:57.711Z,11292
2018-05-19T10:12:58.208Z,11284
2018-05-19T10:13:57.695Z,11260
2018-05-19T10:14:57.989Z,11256
2018-05-19T10:15:57.948Z,11264
2018-05-19T10:16:57.969Z,11312
2018-05-19T10:17:57.681Z,11432
2018-05-19T10:18:58.217Z,11864
2018-05-19T10:19:58.504Z,11576
2018-05-19T10:20:57.995Z,11520
2018-05-19T10:21:57.985Z,11876
2018-05-19T10:53:22.795Z,11152
2018-05-19T10:54:20.634Z,11404
2018-05-19T10:55:20.902Z,11528
2018-05-19T10:56:20.893Z,11352
2018-05-19T10:57:20.643Z,11424
2018-05-19T10:58:20.908Z,11532
2018-05-19T10:59:20.646Z,11400
2018-05-19T11:00:20.660Z,11188
2018-05-19T11:01:20.905Z,11112
2018-05-19T11:02:20.901Z,11292
2018-05-19T11:03:20.926Z,11752
2018-05-19T11:04:21.187Z,12008
2018-05-19T11:05:20.915Z,11864
2018-05-19T11:06:20.909Z,12104
2018-05-19T11:07:21.155Z,11956
2018-05-19T11:08:20.917Z,12068
2018-05-19T11:09:21.183Z,12076
2018-05-19T11:10:20.932Z,12108
2018-05-19T11:11:21.188Z,11928
2018-05-19T11:12:21.184Z,11896
2018-05-19T11:13:21.190Z,12112
2018-05-19T11:14:20.972Z,12552
2018-05-19T11:15:21.036Z,12736
2018-05-19T11:16:20.941Z,12628
2018-05-19T11:17:20.982Z,12768
2018-05-19T11:18:20.675Z,12736
2018-05-19T11:19:20.418Z,12616
2018-05-19T11:20:20.927Z,12028
2018-05-19T11:21:20.977Z,11668
2018-05-19T11:22:20.691Z,11388
2018-05-19T11:23:22.739Z,11596
2018-05-19T11:24:20.956Z,10512
2018-05-19T11:25:21.065Z,10300
2018-05-19T11:26:21.232Z,10192
2018-05-19T11:27:20.700Z,10036
2018-05-19T11:28:20.882Z,9956
2018-05-19T11:29:20.965Z,9864
2018-05-19T11:30:20.985Z,9812
2018-05-19T11:31:20.978Z,9864
2018-05-19T11:32:20.991Z,9956
2018-05-19T11:33:21.002Z,10108
2018-05-19T11:34:20.979Z,10232
2018-05-19T11:35:21.239Z,10516
2018-05-19T11:36:20.723Z,10944
2018-05-19T11:37:20.736Z,11052
2018-05-19T11:38:21.087Z,11588
2018-05-19T11:39:21.008Z,11656
2018-05-19T11:40:21.012Z,11488
2018-05-19T11:41:21.014Z,10988
2018-05-19T11:42:21.262Z,10968
2018-05-19T11:43:21.805Z,11164
2018-05-19T11:44:21.024Z,11080
2018-05-19T11:45:21.033Z,10948
2018-05-19T11:46:21.054Z,11060
2018-05-19T11:47:21.286Z,11028
2018-05-19T11:48:21.032Z,10904
2018-05-19T11:49:21.287Z,10632
2018-05-19T11:50:21.063Z,9876
2018-05-19T11:51:21.040Z,10152
2018-05-19T11:52:20.774Z,10496
2018-05-19T11:53:21.326Z,10536
2018-05-19T11:54:21.391Z,10448
2018-05-19T11:55:21.043Z,10496
2018-05-19T11:56:20.792Z,10564
2018-05-19T11:57:21.037Z,10564
2018-05-19T11:58:20.797Z,10524
2018-05-19T11:59:21.074Z,10492
2018-05-19T12:00:21.315Z,10484
2018-05-19T12:01:21.318Z,10504
2018-05-19T12:02:20.537Z,10524
2018-05-19T12:03:20.823Z,10476
2018-05-19T12:04:21.166Z,10428
2018-05-19T12:05:20.818Z,10376
2018-05-19T12:06:21.093Z,10332
2018-05-19T12:07:21.339Z,10260
2018-05-19T12:08:21.078Z,10192
2018-05-19T12:09:21.073Z,10036
2018-05-19T12:10:20.836Z,10024
2018-05-19T12:11:20.908Z,9960
2018-05-19T12:12:21.888Z,9896
2018-05-19T12:13:20.831Z,9824
2018-05-19T12:14:21.647Z,9756
2018-05-19T12:15:20.843Z,9696
2018-05-19T12:16:21.452Z,9636
2018-05-19T12:17:20.846Z,9604
2018-05-19T12:18:21.104Z,9596
2018-05-19T12:19:21.193Z,9592
2018-05-19T12:20:20.866Z,9580
2018-05-19T12:21:21.125Z,9568
2018-05-19T12:22:20.867Z,9536
2018-05-19T12:23:21.133Z,9508
2018-05-19T12:24:21.942Z,9436
2018-05-19T12:25:20.892Z,9360
2018-05-19T12:26:21.140Z,9280
2018-05-19T12:27:21.137Z,9192
2018-05-19T12:28:21.439Z,9096
2018-05-19T12:29:20.890Z,9016
2018-05-19T12:30:20.627Z,8948
2018-05-19T12:31:21.416Z,8936
2018-05-19T12:32:21.169Z,8908
2018-05-19T12:33:21.167Z,8860
2018-05-19T12:34:20.900Z,8804
2018-05-19T12:35:21.426Z,8752
2018-05-19T12:36:20.891Z,8708
2018-05-19T12:37:21.439Z,8660
2018-05-19T12:38:20.996Z,8632
2018-05-19T12:39:21.258Z,8624
2018-05-19T12:40:20.920Z,8596
2018-05-19T12:41:20.959Z,8536
2018-05-19T12:42:20.933Z,8528
2018-05-19T12:43:21.206Z,8556
2018-05-19T12:44:22.254Z,8552
2018-05-19T12:45:21.274Z,8528
2018-05-19T12:46:21.194Z,8492
2018-05-19T12:47:21.467Z,8552
2018-05-19T12:48:21.199Z,8628
2018-05-19T12:49:21.200Z,8608
2018-05-19T12:50:21.467Z,8580
2018-05-19T12:51:21.213Z,8504
2018-05-19T12:52:21.214Z,8380
2018-05-19T12:53:21.290Z,8132
2018-05-19T12:54:21.479Z,8216
2018-05-19T12:55:20.972Z,8336
2018-05-19T12:56:21.505Z,8324
2018-05-19T12:57:21.485Z,8428
2018-05-19T12:58:22.251Z,8688
2018-05-19T12:59:21.223Z,8820
2018-05-19T13:00:21.802Z,8940
2018-05-19T13:01:20.967Z,9048
2018-05-19T13:02:21.532Z,9104
2018-05-19T13:03:20.990Z,9068
2018-05-19T13:04:20.714Z,8956
2018-05-19T13:05:21.300Z,8816
2018-05-19T13:06:21.517Z,8580
2018-05-19T13:07:21.532Z,8064
2018-05-19T13:08:20.998Z,7672
2018-05-19T13:09:20.999Z,7568
2018-05-19T13:10:21.532Z,7744
2018-05-19T13:11:21.552Z,8112
2018-05-19T13:12:21.541Z,8464
2018-05-19T13:13:21.544Z,8744
2018-05-19T13:14:21.309Z,9048
2018-05-19T13:15:20.761Z,9328
2018-05-19T13:16:21.273Z,9524
2018-05-19T13:17:21.542Z,9608
2018-05-19T13:18:21.279Z,9456
2018-05-19T13:19:21.370Z,9244
2018-05-19T13:20:21.299Z,9212
2018-05-19T13:21:21.038Z,9212
2018-05-19T13:22:21.556Z,9208
2018-05-19T13:23:21.305Z,9232
2018-05-19T13:24:21.043Z,9296
2018-05-19T13:25:23.712Z,9496
2018-05-19T13:26:21.298Z,9964
2018-05-19T13:27:21.055Z,9596
2018-05-19T13:28:21.314Z,9460
2018-05-19T13:29:21.318Z,9544
2018-05-19T13:30:21.587Z,9964
2018-05-19T13:31:21.599Z,10692
2018-05-19T13:32:21.072Z,10592
2018-05-19T13:33:21.089Z,10428
2018-05-19T13:34:21.318Z,10892
2018-05-19T13:35:21.354Z,10596
2018-05-19T13:36:20.825Z,11600
2018-05-19T13:37:21.334Z,11772
2018-05-19T13:38:21.350Z,11848
2018-05-19T13:39:21.628Z,11824
2018-05-19T13:40:21.619Z,11628
2018-05-19T13:41:21.670Z,11356
2018-05-19T13:42:20.827Z,11068
2018-05-19T13:43:21.369Z,10752
2018-05-19T13:44:21.353Z,10492
2018-05-19T13:45:21.367Z,10276
2018-05-19T13:46:21.626Z,10056
2018-05-19T13:47:21.418Z,9780
2018-05-19T13:48:21.120Z,9184
2018-05-19T13:49:21.109Z,8652
2018-05-19T13:50:21.370Z,8004
2018-05-19T13:51:21.669Z,7600
2018-05-19T13:52:21.625Z,7288
2018-05-19T13:53:21.389Z,7120
2018-05-19T13:54:21.416Z,6988
2018-05-19T13:55:21.674Z,7016
2018-05-19T13:56:21.137Z,7100
2018-05-19T13:57:21.700Z,7388
2018-05-19T13:58:21.665Z,7632
2018-05-19T13:59:21.414Z,7936
2018-05-19T14:00:21.419Z,8244
2018-05-19T14:01:21.155Z,8380
2018-05-19T14:02:21.703Z,8488
2018-05-19T14:03:21.161Z,8620
2018-05-19T14:04:21.422Z,8684
2018-05-19T14:05:21.897Z,8824
2018-05-19T14:06:21.702Z,8948
2018-05-19T14:07:21.436Z,9088
2018-05-19T14:08:21.440Z,9208
2018-05-19T14:09:21.473Z,9388
2018-05-19T14:10:21.441Z,9484
2018-05-19T14:11:21.450Z,9608
2018-05-19T14:12:20.943Z,9764